createdAt,value
2018-10-18T00:02:09.880Z,10.53
2018-10-18T00:07:13.363Z,11.50
2018-10-18T00:12:16.697Z,8.95
2018-10-18T00:17:25.463Z,10.18
2018-10-18T00:22:28.756Z,9.45
2018-10-18T00:27:32.044Z,7.83
2018-10-18T00:32:35.334Z,8.80
2018-10-18T00:37:38.872Z,10.10
2018-10-18T00:42:42.493Z,9.10
2018-10-18T00:47:45.795Z,10.27
2018-10-18T00:52:49.088Z,10.20
2018-10-18T00:57:52.370Z,10.68
2018-10-18T01:02:55.663Z,8.48
2018-10-18T01:07:58.957Z,10.50
2018-10-18T01:13:02.249Z,10.95
2018-10-18T01:18:06.333Z,9.43
2018-10-18T01:23:09.897Z,9.83
2018-10-18T01:28:13.180Z,9.90
2018-10-18T01:33:16.504Z,8.68
2018-10-18T01:38:19.812Z,8.53
2018-10-18T01:43:23.189Z,11.03
2018-10-18T01:48:26.493Z,10.82
2018-10-18T01:53:30.064Z,8.58
2018-10-18T01:58:33.351Z,8.00
2018-10-18T02:03:36.635Z,9.18
2018-10-18T02:08:39.941Z,9.45
2018-10-18T02:13:43.379Z,7.95
2018-10-18T02:18:46.631Z,9.63
2018-10-18T02:23:49.932Z,7.90
2018-10-18T02:28:53.260Z,8.43
2018-10-18T02:33:56.551Z,7.67
2018-10-18T02:38:59.835Z,11.45
2018-10-18T02:44:03.163Z,9.08
2018-10-18T02:49:06.515Z,7.40
2018-10-18T02:54:09.879Z,8.03
2018-10-18T02:59:13.089Z,10.20
2018-10-18T03:04:16.351Z,8.00
2018-10-18T03:09:19.637Z,8.38
2018-10-18T03:14:22.891Z,10.13
2018-10-18T03:19:26.363Z,8.25
2018-10-18T03:24:29.652Z,8.30
2018-10-18T03:29:32.999Z,9.25
2018-10-18T03:34:36.312Z,7.90
2018-10-18T03:39:39.580Z,9.93
2018-10-18T03:44:42.871Z,8.20
2018-10-18T03:49:46.153Z,8.00
2018-10-18T03:54:49.418Z,7.45
2018-10-18T03:59:52.772Z,8.53
2018-10-18T04:04:56.056Z,10.13
2018-10-18T04:09:59.383Z,10.30
2018-10-18T04:15:03.266Z,9.38
2018-10-18T04:20:07.128Z,7.83
2018-10-18T04:25:10.393Z,8.72
2018-10-18T04:30:13.810Z,10.48
2018-10-18T04:35:16.935Z,8.77
2018-10-18T04:40:20.191Z,8.73
2018-10-18T04:45:23.491Z,10.28
2018-10-18T04:50:26.763Z,8.15
2018-10-18T04:55:30.099Z,8.98
2018-10-18T05:00:33.369Z,8.83
2018-10-18T05:05:57.392Z,10.20
2018-10-18T05:11:00.643Z,8.70
2018-10-18T05:16:04.882Z,8.80
2018-10-18T05:21:08.151Z,10.10
2018-10-18T05:26:11.432Z,11.78
2018-10-18T05:31:14.820Z,16.93
2018-10-18T05:36:17.983Z,22.53
2018-10-18T05:41:21.251Z,20.48
2018-10-18T05:46:24.546Z,21.68
2018-10-18T05:51:27.819Z,19.92
2018-10-18T05:56:31.093Z,17.23
2018-10-18T06:01:34.383Z,18.37
2018-10-18T06:06:37.655Z,22.30
2018-10-18T06:11:40.911Z,20.82
2018-10-18T06:16:44.224Z,20.57
2018-10-18T06:21:47.492Z,20.15
2018-10-18T06:26:50.775Z,23.52
2018-10-18T06:31:54.049Z,25.37
2018-10-18T06:36:57.344Z,22.07
2018-10-18T06:42:00.608Z,25.37
2018-10-18T06:47:04.036Z,22.37
2018-10-18T06:52:07.251Z,20.90
2018-10-18T06:57:10.541Z,22.60
2018-10-18T07:02:13.823Z,21.48
2018-10-18T07:07:17.102Z,20.62
2018-10-18T07:12:20.377Z,24.45
2018-10-18T07:17:23.653Z,21.73
2018-10-18T07:22:26.939Z,22.20
2018-10-18T07:27:30.223Z,23.32
2018-10-18T07:32:33.490Z,24.03
2018-10-18T07:37:36.800Z,25.92
2018-10-18T07:42:40.213Z,25.08
2018-10-18T07:47:44.136Z,25.00
2018-10-18T07:52:47.426Z,23.07
2018-10-18T07:57:50.704Z,30.25
2018-10-18T08:02:53.986Z,22.62
2018-10-18T08:07:57.251Z,33.88
2018-10-18T08:13:00.593Z,34.73
2018-10-18T08:18:03.823Z,43.10
2018-10-18T08:23:07.092Z,39.95
2018-10-18T08:28:10.376Z,31.95
2018-10-18T08:33:13.670Z,30.92
2018-10-18T08:38:17.450Z,32.93
2018-10-18T08:43:21.567Z,26.15
2018-10-18T08:48:24.841Z,26.48
2018-10-18T08:53:28.112Z,29.52
2018-10-18T08:58:31.378Z,26.73
2018-10-18T09:03:34.655Z,31.63
2018-10-18T09:08:37.923Z,25.12
2018-10-18T09:13:41.279Z,30.85
2018-10-18T09:18:44.544Z,29.67
2018-10-18T09:23:48.274Z,29.25
2018-10-18T09:28:51.488Z,25.62
2018-10-18T09:33:54.823Z,27.55
2018-10-18T09:38:58.084Z,21.23
2018-10-18T09:44:04.494Z,24.18
2018-10-18T09:49:07.843Z,29.05
2018-10-18T09:54:11.055Z,30.88
2018-10-18T09:59:14.324Z,31.57
2018-10-18T10:04:17.595Z,29.57
2018-10-18T10:09:20.887Z,28.70
2018-10-18T10:14:24.169Z,24.35
2018-10-18T10:19:27.504Z,25.48
2018-10-18T10:24:30.822Z,25.10
2018-10-18T10:29:34.083Z,26.75
2018-10-18T10:34:37.351Z,28.15
2018-10-18T10:39:40.683Z,34.33
2018-10-18T10:44:43.996Z,33.28
2018-10-18T10:49:47.726Z,33.92
2018-10-18T10:54:51.004Z,35.52
2018-10-18T10:59:54.276Z,36.08
2018-10-18T11:04:57.557Z,40.65
2018-10-18T11:10:00.920Z,35.55
2018-10-18T11:15:04.393Z,43.78
2018-10-18T11:20:07.760Z,40.65
2018-10-18T11:25:11.105Z,39.67
2018-10-18T11:30:14.474Z,38.30
2018-10-18T11:35:17.686Z,40.23
2018-10-18T11:40:20.972Z,34.57
2018-10-18T11:45:24.283Z,36.17
2018-10-18T11:50:27.866Z,36.05
2018-10-18T11:55:31.191Z,37.90
2018-10-18T12:00:34.466Z,33.65
2018-10-18T12:05:37.746Z,40.23
2018-10-18T12:10:41.034Z,35.78
2018-10-18T12:15:44.417Z,43.10
2018-10-18T12:20:47.702Z,40.28
2018-10-18T12:25:50.976Z,39.25
2018-10-18T12:30:54.258Z,36.98
2018-10-18T12:35:57.537Z,39.27
2018-10-18T12:41:00.913Z,36.40
2018-10-18T12:46:04.148Z,34.73
2018-10-18T12:51:07.440Z,32.00
2018-10-18T12:56:10.798Z,29.90
2018-10-18T13:01:14.041Z,29.85
2018-10-18T13:06:17.349Z,30.45
2018-10-18T13:11:20.611Z,28.75
2018-10-18T13:16:23.918Z,30.00
2018-10-18T13:21:27.251Z,34.80
2018-10-18T13:26:30.525Z,26.87
2018-10-18T13:31:33.808Z,21.12
2018-10-18T13:36:37.093Z,26.90
2018-10-18T13:41:40.461Z,21.70
2018-10-18T13:46:43.783Z,22.37
2018-10-18T13:51:47.066Z,25.80
2018-10-18T13:56:50.355Z,21.20
2018-10-18T14:01:53.665Z,26.62
2018-10-18T14:06:56.970Z,23.12
2018-10-18T14:12:00.254Z,24.98
2018-10-18T14:17:03.656Z,20.60
2018-10-18T14:22:06.949Z,20.32
2018-10-18T14:27:10.404Z,22.27
2018-10-18T14:32:13.759Z,17.42
2018-10-18T14:37:17.093Z,22.15
2018-10-18T14:42:20.392Z,21.50
2018-10-18T14:47:24.111Z,21.17
2018-10-18T14:52:27.269Z,18.32
2018-10-18T14:57:30.603Z,18.45
2018-10-18T15:02:33.942Z,19.07
2018-10-18T15:07:38.213Z,18.48
2018-10-18T15:12:41.896Z,18.32
2018-10-18T15:17:45.157Z,19.67
2018-10-18T15:22:48.476Z,18.98
2018-10-18T15:27:51.929Z,16.90
2018-10-18T15:32:55.175Z,16.48
2018-10-18T15:37:58.512Z,21.87
2018-10-18T15:43:02.558Z,23.18
2018-10-18T15:48:05.910Z,22.17
2018-10-18T15:53:09.263Z,16.37
2018-10-18T15:58:12.680Z,20.52
2018-10-18T16:03:16.093Z,19.75
2018-10-18T16:08:19.334Z,18.30
2018-10-18T16:13:22.638Z,20.37
2018-10-18T16:18:25.986Z,21.50
2018-10-18T16:23:29.314Z,20.27
2018-10-18T16:28:32.627Z,20.85
2018-10-18T16:33:36.064Z,14.53
2018-10-18T16:38:39.353Z,16.65
2018-10-18T16:43:42.659Z,16.93
2018-10-18T16:48:45.976Z,19.17
2018-10-18T16:53:49.318Z,20.90
2018-10-18T16:58:52.930Z,18.70
2018-10-18T17:03:56.284Z,19.52
2018-10-18T17:08:59.577Z,15.70
2018-10-18T17:14:02.901Z,14.50
2018-10-18T17:19:06.680Z,14.05
2018-10-18T17:24:10.016Z,14.98
2018-10-18T17:29:13.309Z,18.17
2018-10-18T17:34:16.642Z,13.78
2018-10-18T17:39:19.913Z,12.05
2018-10-18T17:44:23.346Z,18.73
2018-10-18T17:49:26.729Z,14.58
2018-10-18T17:54:30.302Z,16.37
2018-10-18T17:59:33.790Z,16.73
2018-10-18T18:04:37.376Z,13.80
2018-10-18T18:09:40.725Z,12.05
2018-10-18T18:14:44.042Z,12.47
2018-10-18T18:19:47.348Z,12.55
2018-10-18T18:24:50.662Z,11.65
2018-10-18T18:29:53.995Z,15.58
2018-10-18T18:34:57.302Z,13.95
2018-10-18T18:40:00.635Z,11.83
2018-10-18T18:45:10.161Z,17.07
2018-10-18T18:50:13.320Z,11.63
2018-10-18T18:55:16.631Z,12.23
2018-10-18T19:00:20.206Z,12.37
2018-10-18T19:05:24.386Z,8.80
2018-10-18T19:10:27.756Z,12.43
2018-10-18T19:15:31.062Z,12.00
2018-10-18T19:20:34.509Z,8.10
2018-10-18T19:25:37.957Z,9.43
2018-10-18T19:30:41.465Z,10.13
2018-10-18T19:35:44.861Z,7.87
2018-10-18T19:40:48.316Z,8.48
2018-10-18T19:45:52.671Z,9.03
2018-10-18T19:50:55.957Z,6.78
2018-10-18T19:55:59.245Z,7.45
2018-10-18T20:01:02.540Z,7.97
2018-10-18T20:06:05.914Z,7.03
2018-10-18T20:11:09.211Z,8.23
2018-10-18T20:16:12.518Z,11.10
2018-10-18T20:21:14.932Z,6.95
2018-10-18T20:26:18.478Z,6.58
2018-10-18T20:31:21.476Z,6.22
2018-10-18T20:36:24.828Z,7.60
2018-10-18T20:41:28.745Z,4.87
2018-10-18T20:46:32.044Z,6.70
2018-10-18T20:51:35.320Z,6.37
2018-10-18T20:56:38.601Z,8.40
2018-10-18T21:01:41.895Z,5.47
2018-10-18T21:06:45.412Z,6.25
2018-10-18T21:11:48.564Z,6.72
2018-10-18T21:16:52.148Z,5.75
2018-10-18T21:21:55.668Z,5.05
2018-10-18T21:26:58.952Z,7.40
2018-10-18T21:32:02.237Z,6.85
2018-10-18T21:37:05.608Z,5.03
2018-10-18T21:42:08.892Z,6.03
2018-10-18T21:47:12.542Z,6.75
2018-10-18T21:52:15.789Z,6.00
2018-10-18T21:57:19.097Z,7.05
2018-10-18T22:02:22.518Z,5.22
2018-10-18T22:07:26.118Z,7.60
2018-10-18T22:12:29.468Z,6.65
2018-10-18T22:17:32.781Z,7.55
2018-10-18T22:22:36.397Z,5.42
2018-10-18T22:27:39.770Z,5.15
2018-10-18T22:32:43.356Z,5.67
2018-10-18T22:37:46.900Z,4.72
2018-10-18T22:42:50.222Z,5.37
2018-10-18T22:47:53.557Z,5.72
2018-10-18T22:52:56.913Z,5.70
2018-10-18T22:58:00.243Z,4.50
2018-10-18T23:03:03.538Z,3.65
2018-10-18T23:08:06.846Z,5.03
2018-10-18T23:13:10.459Z,4.67
2018-10-18T23:18:13.744Z,4.70
2018-10-18T23:23:17.160Z,3.65
2018-10-18T23:28:20.348Z,5.97
2018-10-18T23:33:23.617Z,3.62
2018-10-18T23:38:27.208Z,4.92
2018-10-18T23:43:30.473Z,4.20
2018-10-18T23:48:33.759Z,5.12
2018-10-18T23:53:37.046Z,3.70
2018-10-18T23:58:40.360Z,3.95
